createdAt,value
2023-02-01T00:00:11.470Z,99717.72
2023-02-01T00:00:43.645Z,99716.91
2023-02-01T00:01:15.519Z,99720.75
2023-02-01T00:01:47.408Z,99715.78
2023-02-01T00:02:19.269Z,99709.97
2023-02-01T00:02:51.374Z,99717.06
2023-02-01T00:03:23.272Z,99715.47
2023-02-01T00:03:55.236Z,99713.06
2023-02-01T00:04:27.434Z,99717.06
2023-02-01T00:04:59.291Z,99709.78
2023-02-01T00:05:31.193Z,99706.97
2023-02-01T00:06:04.110Z,99708.25
2023-02-01T00:06:36.041Z,99705.88
2023-02-01T00:07:07.906Z,99707.03
2023-02-01T00:07:39.812Z,99707.69
2023-02-01T00:08:11.687Z,99716.72
2023-02-01T00:08:43.574Z,99706.72
2023-02-01T00:09:15.535Z,99718.81
2023-02-01T00:09:47.442Z,99709.63
2023-02-01T00:10:19.445Z,99709.72
2023-02-01T00:11:06.680Z,99712.50
2023-02-01T00:11:38.866Z,99705.59
2023-02-01T00:12:10.869Z,99713.78
2023-02-01T00:12:42.833Z,99707.72
2023-02-01T00:13:14.670Z,99708.34
2023-02-01T00:13:46.588Z,99712.66
2023-02-01T00:14:18.518Z,99706.97
2023-02-01T00:14:50.421Z,99709.38
2023-02-01T00:15:24.053Z,99711.94
2023-02-01T00:15:56.097Z,99707.44
2023-02-01T00:16:30.638Z,99705.78
2023-02-01T00:17:02.807Z,99705.78
2023-02-01T00:17:34.759Z,99719.25
2023-02-01T00:18:06.686Z,99710.03
2023-02-01T00:18:38.712Z,99712.78
2023-02-01T00:19:16.196Z,99714.41
2023-02-01T00:19:48.060Z,99715.88
2023-02-01T00:20:20.266Z,99708.09
2023-02-01T00:20:52.338Z,99712.31
2023-02-01T00:21:24.196Z,99714.59
2023-02-01T00:21:56.118Z,99711.34
2023-02-01T00:22:28.281Z,99707.75
2023-02-01T00:23:00.128Z,99713.75
2023-02-01T00:23:36.477Z,99708.69
2023-02-01T00:24:10.128Z,99714.34
2023-02-01T00:24:41.997Z,99717.13
2023-02-01T00:25:13.866Z,99712.91
2023-02-01T00:25:45.709Z,99710.16
2023-02-01T00:26:37.727Z,99717.75
2023-02-01T00:27:09.666Z,99714.53
2023-02-01T00:27:41.884Z,99710.81
2023-02-01T00:28:13.977Z,99709.41
2023-02-01T00:28:46.565Z,99709.06
2023-02-01T00:29:21.030Z,99707.12
2023-02-01T00:29:54.943Z,99709.72
2023-02-01T00:30:26.829Z,99704.53
2023-02-01T00:31:00.166Z,99709.72
2023-02-01T00:31:32.611Z,99710.84
2023-02-01T00:32:04.886Z,99708.09
2023-02-01T00:32:36.785Z,99709.19
2023-02-01T00:33:09.266Z,99711.56
2023-02-01T00:33:41.344Z,99714.53
2023-02-01T00:34:16.439Z,99713.00
2023-02-01T00:34:48.279Z,99711.22
2023-02-01T00:35:20.164Z,99711.22
2023-02-01T00:35:52.328Z,99704.19
2023-02-01T00:36:24.214Z,99714.78
2023-02-01T00:36:56.117Z,99714.78
2023-02-01T00:37:28.025Z,99714.94
2023-02-01T00:38:01.309Z,99715.25
2023-02-01T00:38:35.176Z,99718.69
2023-02-01T00:39:07.222Z,99710.56
2023-02-01T00:39:39.086Z,99721.03
2023-02-01T00:40:11.728Z,99720.97
2023-02-01T00:40:43.629Z,99716.47
2023-02-01T00:41:18.244Z,99718.66
2023-02-01T00:41:50.126Z,99716.19
2023-02-01T00:42:22.134Z,99713.72
2023-02-01T00:42:54.409Z,99715.44
2023-02-01T00:43:26.269Z,99715.78
2023-02-01T00:43:58.478Z,99712.44
2023-02-01T00:44:34.267Z,99712.00
2023-02-01T00:45:06.767Z,99720.66
2023-02-01T00:45:38.630Z,99710.25
2023-02-01T00:46:11.701Z,99716.19
2023-02-01T00:46:43.692Z,99716.22
2023-02-01T00:47:15.695Z,99713.94
2023-02-01T00:47:47.585Z,99712.72
2023-02-01T00:48:19.808Z,99714.25
2023-02-01T00:48:52.320Z,99713.22
2023-02-01T00:49:25.206Z,99710.75
2023-02-01T00:49:58.577Z,99711.41
2023-02-01T00:50:30.463Z,99709.63
2023-02-01T00:51:04.014Z,99708.19
2023-02-01T00:51:36.266Z,99711.56
2023-02-01T00:52:08.168Z,99714.78
2023-02-01T00:52:40.052Z,99717.06
2023-02-01T00:53:12.344Z,99711.56
2023-02-01T00:53:44.387Z,99712.84
2023-02-01T00:54:16.274Z,99713.44
2023-02-01T00:54:48.467Z,99709.56
2023-02-01T00:55:20.300Z,99710.22
2023-02-01T00:55:52.157Z,99719.06
2023-02-01T00:56:24.187Z,99715.72
2023-02-01T00:56:56.131Z,99715.09
2023-02-01T00:57:27.973Z,99710.91
2023-02-01T00:57:59.910Z,99714.44
2023-02-01T00:58:32.448Z,99712.78
2023-02-01T00:59:04.303Z,99707.91
2023-02-01T00:59:36.180Z,99708.91
2023-02-01T01:00:09.128Z,99711.69
2023-02-01T01:00:41.502Z,99711.50
2023-02-01T01:01:23.005Z,99711.13
2023-02-01T01:01:54.952Z,99716.75
2023-02-01T01:02:27.779Z,99709.53
2023-02-01T01:02:59.689Z,99707.25
2023-02-01T01:03:34.415Z,99714.72
2023-02-01T01:04:06.338Z,99704.81
2023-02-01T01:04:38.956Z,99715.31
2023-02-01T01:05:11.176Z,99712.19
2023-02-01T01:05:43.047Z,99718.47
2023-02-01T01:06:17.684Z,99715.19
2023-02-01T01:06:49.609Z,99710.16
2023-02-01T01:07:21.522Z,99712.72
2023-02-01T01:07:53.421Z,99722.06
2023-02-01T01:08:25.276Z,99707.84
2023-02-01T01:08:59.278Z,99711.44
2023-02-01T01:09:31.253Z,99714.53
2023-02-01T01:10:03.486Z,99716.19
2023-02-01T01:10:37.672Z,99716.31
2023-02-01T01:11:18.330Z,99710.44
2023-02-01T01:11:52.127Z,99702.19
2023-02-01T01:12:24.184Z,99709.88
2023-02-01T01:12:56.223Z,99705.53
2023-02-01T01:13:28.148Z,99702.13
2023-02-01T01:14:00.884Z,99701.97
2023-02-01T01:14:33.836Z,99703.22
2023-02-01T01:15:06.310Z,99699.06
2023-02-01T01:15:41.216Z,99700.69
2023-02-01T01:16:13.444Z,99696.63
2023-02-01T01:16:45.404Z,99692.69
2023-02-01T01:17:17.570Z,99698.06
2023-02-01T01:17:49.493Z,99692.59
2023-02-01T01:18:21.382Z,99688.03
2023-02-01T01:18:54.481Z,99683.78
2023-02-01T01:19:26.411Z,99677.12
2023-02-01T01:19:59.912Z,99681.47
2023-02-01T01:20:31.959Z,99673.44
2023-02-01T01:21:06.568Z,99677.81
2023-02-01T01:21:39.135Z,99673.91
2023-02-01T01:22:11.027Z,99676.84
2023-02-01T01:22:42.951Z,99672.75
2023-02-01T01:23:14.856Z,99672.13
2023-02-01T01:23:47.952Z,99677.81
2023-02-01T01:24:19.864Z,99673.44
2023-02-01T01:24:51.947Z,99677.66
2023-02-01T01:25:24.079Z,99669.59
2023-02-01T01:25:55.923Z,99669.62
2023-02-01T01:26:30.751Z,99669.41
2023-02-01T01:27:02.883Z,99671.72
2023-02-01T01:27:34.746Z,99665.56
2023-02-01T01:28:07.864Z,99667.47
2023-02-01T01:28:39.730Z,99664.53
2023-02-01T01:29:12.125Z,99656.75
2023-02-01T01:29:44.022Z,99660.47
2023-02-01T01:30:16.431Z,99664.78
2023-02-01T01:30:48.399Z,99659.84
2023-02-01T01:31:21.614Z,99663.44
2023-02-01T01:31:54.381Z,99657.41
2023-02-01T01:32:26.314Z,99651.37
2023-02-01T01:32:58.285Z,99663.66
2023-02-01T01:33:30.336Z,99658.50
2023-02-01T01:34:02.286Z,99660.28
2023-02-01T01:34:34.344Z,99659.28
2023-02-01T01:35:06.859Z,99656.06
2023-02-01T01:35:38.882Z,99652.97
2023-02-01T01:36:12.181Z,99657.91
2023-02-01T01:36:44.498Z,99659.34
2023-02-01T01:37:17.048Z,99660.44
2023-02-01T01:37:49.035Z,99665.28
2023-02-01T01:38:21.056Z,99659.28
2023-02-01T01:38:53.433Z,99661.44
2023-02-01T01:39:25.339Z,99654.81
2023-02-01T01:39:58.481Z,99657.06
2023-02-01T01:40:31.411Z,99650.28
2023-02-01T01:41:03.430Z,99648.50
2023-02-01T01:41:35.357Z,99647.31
2023-02-01T01:42:13.051Z,99646.09
2023-02-01T01:42:45.749Z,99644.09
2023-02-01T01:43:23.393Z,99647.31
2023-02-01T01:44:37.983Z,99645.03
2023-02-01T01:45:25.481Z,99647.53
2023-02-01T01:45:57.441Z,99650.28
2023-02-01T01:46:36.041Z,99646.75
2023-02-01T01:47:08.330Z,99651.84
2023-02-01T01:47:49.386Z,99656.34
2023-02-01T01:48:31.032Z,99650.66
2023-02-01T01:49:22.994Z,99653.38
2023-02-01T01:49:55.124Z,99648.97
2023-02-01T01:50:38.942Z,99642.22
2023-02-01T01:51:15.416Z,99641.69
2023-02-01T01:52:02.051Z,99638.72
2023-02-01T01:52:35.643Z,99645.84
2023-02-01T01:53:12.903Z,99655.03
2023-02-01T01:53:54.434Z,99653.75
2023-02-01T01:54:28.963Z,99657.78
2023-02-01T01:55:01.044Z,99653.09
2023-02-01T01:55:37.810Z,99660.94
2023-02-01T01:56:10.489Z,99653.72
2023-02-01T01:56:43.106Z,99660.19
2023-02-01T01:57:24.825Z,99667.31
2023-02-01T01:58:03.615Z,99657.63
2023-02-01T01:58:35.747Z,99652.53
2023-02-01T01:59:08.980Z,99662.69
2023-02-01T01:59:46.992Z,99660.16
2023-02-01T02:00:21.777Z,99657.97
2023-02-01T02:00:55.840Z,99657.91
2023-02-01T02:01:28.260Z,99661.38
2023-02-01T02:02:00.257Z,99658.50
2023-02-01T02:02:32.446Z,99661.22
2023-02-01T02:03:19.651Z,99656.88
2023-02-01T02:03:52.936Z,99659.78
2023-02-01T02:04:26.417Z,99665.22
2023-02-01T02:04:58.334Z,99654.25
2023-02-01T02:05:31.381Z,99656.31
2023-02-01T02:06:08.802Z,99659.13
2023-02-01T02:07:04.143Z,99663.66
2023-02-01T02:07:44.355Z,99658.03
2023-02-01T02:08:17.404Z,99656.06
2023-02-01T02:08:49.348Z,99648.84
2023-02-01T02:09:21.585Z,99648.66
2023-02-01T02:10:00.434Z,99645.09
2023-02-01T02:10:52.270Z,99641.13
2023-02-01T02:11:24.123Z,99644.00
2023-02-01T02:11:56.104Z,99644.06
2023-02-01T02:12:28.739Z,99647.56
2023-02-01T02:13:01.065Z,99645.44
2023-02-01T02:13:37.990Z,99639.53
2023-02-01T02:14:15.089Z,99641.25
2023-02-01T02:14:47.747Z,99636.00
2023-02-01T02:15:19.768Z,99635.28
2023-02-01T02:16:27.140Z,99635.28
2023-02-01T02:16:59.097Z,99634.75
2023-02-01T02:17:49.828Z,99634.97
2023-02-01T02:18:34.714Z,99633.66
2023-02-01T02:19:40.438Z,99638.22
2023-02-01T02:20:32.761Z,99645.25
2023-02-01T02:21:16.864Z,99638.94
2023-02-01T02:22:12.691Z,99648.47
2023-02-01T02:23:01.459Z,99639.88
2023-02-01T02:24:06.713Z,99649.16
2023-02-01T02:25:17.452Z,99640.53
2023-02-01T02:26:04.638Z,99635.50
2023-02-01T02:27:01.158Z,99640.38
2023-02-01T02:27:51.646Z,99640.69
2023-02-01T02:29:01.555Z,99632.63
2023-02-01T02:29:59.893Z,99640.44
2023-02-01T02:30:50.419Z,99642.63
2023-02-01T02:31:42.247Z,99642.53
2023-02-01T02:32:22.745Z,99643.75
2023-02-01T02:33:14.310Z,99650.66
2023-02-01T02:34:31.004Z,99640.94
2023-02-01T02:35:14.692Z,99643.09
2023-02-01T02:36:12.343Z,99643.09
2023-02-01T02:36:50.503Z,99640.31
2023-02-01T02:37:25.154Z,99634.00
2023-02-01T02:38:14.187Z,99632.53
2023-02-01T02:39:22.113Z,99636.41
2023-02-01T02:40:18.434Z,99634.97
2023-02-01T02:41:08.599Z,99629.97
2023-02-01T02:42:08.296Z,99628.47
2023-02-01T02:43:10.266Z,99632.31
2023-02-01T02:44:05.792Z,99628.84
2023-02-01T02:45:11.607Z,99628.72
2023-02-01T02:46:19.151Z,99632.09
2023-02-01T02:47:12.091Z,99634.09
2023-02-01T02:48:15.312Z,99634.28
2023-02-01T02:49:02.364Z,99633.47
2023-02-01T02:50:20.320Z,99631.78
2023-02-01T02:51:40.284Z,99627.97
2023-02-01T02:52:37.646Z,99632.44
2023-02-01T02:53:41.528Z,99629.44
2023-02-01T02:54:37.108Z,99617.91
2023-02-01T02:55:11.212Z,99629.78
2023-02-01T02:55:44.723Z,99623.06
2023-02-01T02:56:36.626Z,99629.69
2023-02-01T02:57:32.372Z,99620.44
2023-02-01T02:58:25.372Z,99625.25
2023-02-01T02:59:17.735Z,99619.94
2023-02-01T03:00:08.533Z,99623.94
2023-02-01T03:01:00.011Z,99619.13
2023-02-01T03:01:52.490Z,99623.16
2023-02-01T03:02:45.585Z,99621.78
2023-02-01T03:03:37.080Z,99627.69
2023-02-01T03:04:10.174Z,99616.50
2023-02-01T03:04:43.420Z,99617.56
2023-02-01T03:05:53.281Z,99615.25
2023-02-01T03:06:26.221Z,99618.97
2023-02-01T03:06:58.138Z,99612.63
2023-02-01T03:07:45.303Z,99610.50
2023-02-01T03:08:26.679Z,99625.84
2023-02-01T03:09:01.111Z,99623.03
2023-02-01T03:09:37.810Z,99619.81
2023-02-01T03:10:14.919Z,99610.09
2023-02-01T03:11:02.079Z,99614.47
2023-02-01T03:11:54.473Z,99602.38
2023-02-01T03:12:45.401Z,99604.59
2023-02-01T03:13:26.139Z,99610.25
2023-02-01T03:13:59.579Z,99605.59
2023-02-01T03:14:34.637Z,99610.88
2023-02-01T03:15:13.654Z,99612.03
2023-02-01T03:16:05.622Z,99601.34
2023-02-01T03:16:42.539Z,99612.03
2023-02-01T03:17:20.494Z,99600.94
2023-02-01T03:17:52.523Z,99594.56
2023-02-01T03:18:42.627Z,99595.53
2023-02-01T03:19:30.038Z,99600.97
2023-02-01T03:20:05.454Z,99602.59
2023-02-01T03:20:42.038Z,99597.59
2023-02-01T03:21:19.827Z,99601.81
2023-02-01T03:21:57.158Z,99607.53
2023-02-01T03:22:32.775Z,99598.75
2023-02-01T03:23:07.591Z,99603.28
2023-02-01T03:23:41.090Z,99597.78
2023-02-01T03:24:34.380Z,99604.00
2023-02-01T03:25:13.600Z,99606.50
2023-02-01T03:25:50.151Z,99602.50
2023-02-01T03:26:25.152Z,99606.31
2023-02-01T03:27:01.756Z,99603.38
2023-02-01T03:27:43.342Z,99602.41
2023-02-01T03:28:20.362Z,99602.53
2023-02-01T03:29:09.515Z,99601.81
2023-02-01T03:29:50.328Z,99611.81
2023-02-01T03:30:26.919Z,99605.81
2023-02-01T03:30:59.914Z,99609.38
2023-02-01T03:31:32.731Z,99608.22
2023-02-01T03:32:04.853Z,99606.00
2023-02-01T03:32:57.007Z,99611.81
2023-02-01T03:33:31.233Z,99607.69
2023-02-01T03:34:05.265Z,99610.19
2023-02-01T03:34:37.940Z,99619.22
2023-02-01T03:35:09.949Z,99616.19
2023-02-01T03:35:49.650Z,99610.44
2023-02-01T03:36:40.088Z,99606.09
2023-02-01T03:37:16.235Z,99608.53
2023-02-01T03:37:49.528Z,99601.47
2023-02-01T03:38:39.355Z,99606.09
2023-02-01T03:39:32.241Z,99607.00
2023-02-01T03:40:12.623Z,99612.53
2023-02-01T03:40:52.454Z,99606.72
2023-02-01T03:41:33.192Z,99606.09
2023-02-01T03:42:20.612Z,99609.12
2023-02-01T03:42:56.882Z,99608.22
2023-02-01T03:43:32.697Z,99608.75
2023-02-01T03:44:27.867Z,99611.00
2023-02-01T03:44:59.927Z,99607.50
2023-02-01T03:45:44.935Z,99607.66
2023-02-01T03:46:47.457Z,99618.66
2023-02-01T03:47:23.487Z,99615.19
2023-02-01T03:48:01.147Z,99618.41
2023-02-01T03:48:34.747Z,99609.97
2023-02-01T03:49:12.263Z,99617.09
2023-02-01T03:49:48.861Z,99611.41
2023-02-01T03:50:24.868Z,99623.31
2023-02-01T03:51:00.896Z,99616.19
2023-02-01T03:51:34.807Z,99618.13
2023-02-01T03:52:12.217Z,99615.19
2023-02-01T03:52:49.748Z,99622.94
2023-02-01T03:53:24.721Z,99612.97
2023-02-01T03:53:58.164Z,99613.88
2023-02-01T03:54:31.429Z,99608.81
2023-02-01T03:55:03.859Z,99611.41
2023-02-01T03:55:37.568Z,99617.22
2023-02-01T03:56:12.555Z,99613.84
2023-02-01T03:56:47.399Z,99616.41
2023-02-01T03:57:25.028Z,99612.72
2023-02-01T03:58:09.226Z,99610.41
2023-02-01T03:58:41.341Z,99609.44
2023-02-01T03:59:14.666Z,99611.34
2023-02-01T03:59:47.557Z,99609.66
2023-02-01T04:00:23.149Z,99608.34
2023-02-01T04:01:00.533Z,99609.12
2023-02-01T04:01:33.290Z,99607.88
2023-02-01T04:02:06.453Z,99606.44
2023-02-01T04:02:38.495Z,99600.97
2023-02-01T04:03:11.055Z,99598.47
2023-02-01T04:03:42.903Z,99595.03
2023-02-01T04:04:20.950Z,99590.78
2023-02-01T04:04:53.536Z,99592.62
2023-02-01T04:05:26.155Z,99589.16
2023-02-01T04:05:59.435Z,99599.97
2023-02-01T04:06:32.039Z,99602.06
2023-02-01T04:07:05.251Z,99602.38
2023-02-01T04:07:37.088Z,99601.41
2023-02-01T04:08:08.969Z,99592.41
2023-02-01T04:08:40.817Z,99603.47
2023-02-01T04:09:12.720Z,99598.81
2023-02-01T04:09:44.544Z,99594.72
2023-02-01T04:10:19.544Z,99587.44
2023-02-01T04:10:51.786Z,99599.03
2023-02-01T04:11:24.106Z,99588.41
2023-02-01T04:11:56.065Z,99592.56
2023-02-01T04:12:28.009Z,99598.91
2023-02-01T04:12:59.913Z,99588.13
2023-02-01T04:13:31.797Z,99598.47
2023-02-01T04:14:05.476Z,99588.47
2023-02-01T04:14:37.534Z,99590.72
2023-02-01T04:15:09.846Z,99586.97
2023-02-01T04:15:41.810Z,99591.47
2023-02-01T04:16:13.751Z,99587.22
2023-02-01T04:16:46.217Z,99586.78
2023-02-01T04:17:18.178Z,99590.31
2023-02-01T04:17:50.068Z,99587.00
2023-02-01T04:18:21.944Z,99590.50
2023-02-01T04:18:53.847Z,99584.06
2023-02-01T04:19:25.691Z,99591.03
2023-02-01T04:19:57.665Z,99587.63
2023-02-01T04:20:29.881Z,99586.28
2023-02-01T04:21:02.998Z,99591.81
2023-02-01T04:21:34.876Z,99584.13
2023-02-01T04:22:07.129Z,99596.06
2023-02-01T04:22:39.075Z,99595.28
2023-02-01T04:23:10.964Z,99591.41
2023-02-01T04:23:42.866Z,99589.37
2023-02-01T04:24:14.832Z,99588.72
2023-02-01T04:24:46.703Z,99589.97
2023-02-01T04:25:18.746Z,99586.66
2023-02-01T04:25:51.982Z,99588.72
2023-02-01T04:26:25.233Z,99588.31
2023-02-01T04:26:57.202Z,99585.34
2023-02-01T04:27:29.422Z,99592.38
2023-02-01T04:28:01.236Z,99589.16
2023-02-01T04:28:33.108Z,99586.25
2023-02-01T04:29:05.012Z,99591.41
2023-02-01T04:29:36.934Z,99590.00
2023-02-01T04:30:12.381Z,99585.97
2023-02-01T04:30:45.153Z,99575.94
2023-02-01T04:31:18.323Z,99592.62
2023-02-01T04:31:50.597Z,99588.59
2023-02-01T04:32:22.565Z,99584.81
2023-02-01T04:32:54.775Z,99591.41
2023-02-01T04:33:26.645Z,99586.88
2023-02-01T04:33:58.779Z,99588.94
2023-02-01T04:34:30.679Z,99586.19
2023-02-01T04:35:02.935Z,99593.44
2023-02-01T04:35:34.874Z,99587.56
2023-02-01T04:36:07.481Z,99587.03
2023-02-01T04:36:39.332Z,99594.69
2023-02-01T04:37:11.220Z,99584.69
2023-02-01T04:37:43.081Z,99596.59
2023-02-01T04:38:15.284Z,99588.38
2023-02-01T04:38:47.173Z,99595.03
2023-02-01T04:39:19.129Z,99586.28
2023-02-01T04:39:51.001Z,99587.91
2023-02-01T04:40:23.088Z,99585.97
2023-02-01T04:40:55.084Z,99579.16
2023-02-01T04:41:27.374Z,99583.72
2023-02-01T04:41:59.267Z,99588.66
2023-02-01T04:42:31.185Z,99581.06
2023-02-01T04:43:04.623Z,99585.12
2023-02-01T04:43:36.868Z,99587.28
2023-02-01T04:44:15.221Z,99590.56
2023-02-01T04:44:47.204Z,99580.41
2023-02-01T04:45:19.525Z,99584.25
2023-02-01T04:45:52.257Z,99577.38
2023-02-01T04:46:24.423Z,99595.47
2023-02-01T04:46:56.338Z,99582.19
2023-02-01T04:47:28.235Z,99585.78
2023-02-01T04:48:00.149Z,99581.37
2023-02-01T04:48:32.052Z,99580.63
2023-02-01T04:49:04.276Z,99572.31
2023-02-01T04:49:36.201Z,99578.75
2023-02-01T04:50:11.322Z,99594.25
2023-02-01T04:50:46.181Z,99579.81
2023-02-01T04:51:19.095Z,99586.16
2023-02-01T04:51:50.986Z,99593.41
2023-02-01T04:52:22.843Z,99591.03
2023-02-01T04:52:54.736Z,99595.56
2023-02-01T04:53:27.546Z,99596.50
2023-02-01T04:53:59.419Z,99590.81
2023-02-01T04:54:31.625Z,99590.28
2023-02-01T04:55:04.473Z,99591.88
2023-02-01T04:55:36.359Z,99598.72
2023-02-01T04:56:08.971Z,99583.56
2023-02-01T04:56:41.449Z,99590.81
2023-02-01T04:57:14.461Z,99586.44
2023-02-01T04:57:46.373Z,99591.66
2023-02-01T04:58:18.283Z,99594.53
2023-02-01T04:58:50.296Z,99592.56
2023-02-01T04:59:22.202Z,99607.75
2023-02-01T04:59:54.385Z,99605.81
2023-02-01T05:00:26.484Z,99599.28
2023-02-01T05:00:58.650Z,99610.16
2023-02-01T05:01:31.137Z,99605.25
2023-02-01T05:02:03.034Z,99608.72
2023-02-01T05:02:36.001Z,99617.56
2023-02-01T05:03:08.063Z,99612.16
2023-02-01T05:03:39.924Z,99605.03
2023-02-01T05:04:12.648Z,99617.19
2023-02-01T05:04:44.563Z,99617.41
2023-02-01T05:05:16.809Z,99613.78
2023-02-01T05:05:50.013Z,99619.13
2023-02-01T05:06:22.663Z,99612.72
2023-02-01T05:06:54.560Z,99612.50
2023-02-01T05:07:26.429Z,99604.97
2023-02-01T05:07:58.280Z,99602.41
2023-02-01T05:08:30.587Z,99605.50
2023-02-01T05:09:02.522Z,99605.50
2023-02-01T05:09:34.427Z,99592.62
2023-02-01T05:10:06.646Z,99599.06
2023-02-01T05:10:38.892Z,99600.66
2023-02-01T05:11:33.847Z,99607.84
2023-02-01T05:12:24.878Z,99602.03
2023-02-01T05:13:15.567Z,99598.00
2023-02-01T05:13:50.242Z,99600.44
2023-02-01T05:14:22.166Z,99593.69
2023-02-01T05:14:54.016Z,99605.28
2023-02-01T05:15:25.865Z,99589.66
2023-02-01T05:15:58.082Z,99600.91
2023-02-01T05:16:30.055Z,99589.69
2023-02-01T05:17:01.904Z,99597.44
2023-02-01T05:17:33.813Z,99601.75
2023-02-01T05:18:05.833Z,99593.69
2023-02-01T05:18:37.743Z,99602.63
2023-02-01T05:19:09.829Z,99603.16
2023-02-01T05:19:41.740Z,99609.50
2023-02-01T05:20:13.677Z,99600.31
2023-02-01T05:20:45.576Z,99607.13
2023-02-01T05:21:17.810Z,99605.78
2023-02-01T05:21:49.661Z,99608.44
2023-02-01T05:22:21.513Z,99599.16
2023-02-01T05:22:53.405Z,99602.31
2023-02-01T05:23:25.329Z,99604.91
2023-02-01T05:24:21.403Z,99608.62
2023-02-01T05:24:53.240Z,99605.84
2023-02-01T05:25:25.162Z,99596.31
2023-02-01T05:26:01.630Z,99601.59
2023-02-01T05:26:34.596Z,99602.00
2023-02-01T05:27:06.551Z,99597.13
2023-02-01T05:27:38.443Z,99605.75
2023-02-01T05:28:10.352Z,99606.53
2023-02-01T05:28:42.350Z,99609.47
2023-02-01T05:29:15.303Z,99613.37
2023-02-01T05:29:47.185Z,99600.31
2023-02-01T05:30:19.108Z,99597.69
2023-02-01T05:30:51.029Z,99601.88
2023-02-01T05:31:23.407Z,99605.97
2023-02-01T05:31:55.813Z,99612.22
2023-02-01T05:32:27.813Z,99604.75
2023-02-01T05:33:00.119Z,99601.22
2023-02-01T05:33:31.976Z,99613.88
2023-02-01T05:34:04.266Z,99603.38
2023-02-01T05:34:36.181Z,99603.84
2023-02-01T05:35:08.732Z,99605.63
2023-02-01T05:35:40.615Z,99594.91
2023-02-01T05:36:12.500Z,99606.41
2023-02-01T05:36:44.417Z,99601.00
2023-02-01T05:37:16.603Z,99608.31
2023-02-01T05:37:48.675Z,99615.72
2023-02-01T05:38:20.521Z,99597.69
2023-02-01T05:38:52.356Z,99597.06
2023-02-01T05:39:24.220Z,99600.22
2023-02-01T05:39:56.129Z,99591.81
2023-02-01T05:40:28.003Z,99603.25
2023-02-01T05:40:59.952Z,99594.00
2023-02-01T05:41:31.824Z,99602.66
2023-02-01T05:42:03.915Z,99594.69
2023-02-01T05:42:36.121Z,99600.34
2023-02-01T05:43:07.970Z,99590.56
2023-02-01T05:43:39.936Z,99598.25
2023-02-01T05:44:12.754Z,99600.22
2023-02-01T05:44:44.701Z,99594.25
2023-02-01T05:45:16.734Z,99597.13
2023-02-01T05:45:48.990Z,99596.31
2023-02-01T05:46:22.166Z,99591.16
2023-02-01T05:46:54.164Z,99594.25
2023-02-01T05:47:26.115Z,99605.03
2023-02-01T05:47:58.436Z,99600.16
2023-02-01T05:48:30.401Z,99599.97
2023-02-01T05:49:02.400Z,99594.97
2023-02-01T05:49:34.297Z,99600.78
2023-02-01T05:50:07.284Z,99600.91
2023-02-01T05:50:39.354Z,99606.47
2023-02-01T05:51:14.446Z,99591.72
2023-02-01T05:51:46.589Z,99600.09
2023-02-01T05:52:21.480Z,99602.88
2023-02-01T05:52:53.334Z,99596.91
2023-02-01T05:53:25.486Z,99603.22
2023-02-01T05:53:57.381Z,99602.97
2023-02-01T05:54:29.264Z,99606.66
2023-02-01T05:55:01.200Z,99608.09
2023-02-01T05:55:33.482Z,99605.66
2023-02-01T05:56:05.808Z,99604.13
2023-02-01T05:56:37.698Z,99607.97
2023-02-01T05:57:09.579Z,99612.91
2023-02-01T05:57:41.493Z,99605.94
2023-02-01T05:58:13.869Z,99603.72
2023-02-01T05:58:46.069Z,99611.44
2023-02-01T05:59:17.962Z,99616.75
2023-02-01T05:59:49.888Z,99616.72
2023-02-01T06:00:22.656Z,99615.72
2023-02-01T06:00:55.068Z,99618.59
2023-02-01T06:01:27.012Z,99614.69
2023-02-01T06:01:58.923Z,99618.97
2023-02-01T06:02:30.815Z,99624.47
2023-02-01T06:03:02.772Z,99622.47
2023-02-01T06:03:34.782Z,99617.56
2023-02-01T06:04:06.739Z,99620.69
2023-02-01T06:04:39.127Z,99619.25
2023-02-01T06:05:11.008Z,99620.47
2023-02-01T06:05:45.525Z,99621.59
2023-02-01T06:06:17.776Z,99621.06
2023-02-01T06:06:51.439Z,99632.63
2023-02-01T06:07:23.440Z,99617.38
2023-02-01T06:07:55.359Z,99623.19
2023-02-01T06:08:27.334Z,99617.56
2023-02-01T06:08:59.530Z,99627.28
2023-02-01T06:09:31.499Z,99619.87
2023-02-01T06:10:03.731Z,99623.06
2023-02-01T06:10:35.639Z,99626.66
2023-02-01T06:11:07.580Z,99632.19
2023-02-01T06:11:41.376Z,99625.66
2023-02-01T06:12:13.337Z,99633.09
2023-02-01T06:12:45.836Z,99632.81
2023-02-01T06:13:17.685Z,99633.50
2023-02-01T06:13:49.542Z,99632.69
2023-02-01T06:14:21.500Z,99632.47
2023-02-01T06:14:53.400Z,99640.69
2023-02-01T06:15:25.295Z,99630.44
2023-02-01T06:15:58.275Z,99629.75
2023-02-01T06:16:30.475Z,99628.59
2023-02-01T06:17:02.683Z,99626.13
2023-02-01T06:17:34.529Z,99637.00
2023-02-01T06:18:06.437Z,99631.94
2023-02-01T06:18:38.832Z,99631.47
2023-02-01T06:19:10.669Z,99632.19
2023-02-01T06:19:42.614Z,99630.81
2023-02-01T06:20:16.029Z,99633.78
2023-02-01T06:20:56.409Z,99643.16
2023-02-01T06:21:28.356Z,99640.56
2023-02-01T06:22:00.331Z,99644.13
2023-02-01T06:22:32.615Z,99653.31
2023-02-01T06:23:06.612Z,99642.31
2023-02-01T06:23:38.524Z,99637.56
2023-02-01T06:24:10.827Z,99645.19
2023-02-01T06:24:42.726Z,99637.00
2023-02-01T06:25:15.082Z,99647.00
2023-02-01T06:25:46.965Z,99642.72
2023-02-01T06:26:19.099Z,99653.09
2023-02-01T06:26:51.088Z,99647.47
2023-02-01T06:27:23.020Z,99651.66
2023-02-01T06:27:55.175Z,99653.59
2023-02-01T06:28:27.400Z,99650.28
2023-02-01T06:28:59.568Z,99647.00
2023-02-01T06:29:31.449Z,99644.91
2023-02-01T06:30:05.419Z,99654.41
2023-02-01T06:30:37.677Z,99647.12
2023-02-01T06:31:09.741Z,99642.06
2023-02-01T06:31:43.449Z,99644.28
2023-02-01T06:32:15.380Z,99638.13
2023-02-01T06:32:54.682Z,99634.97
2023-02-01T06:33:27.022Z,99636.06
2023-02-01T06:33:58.963Z,99648.38
2023-02-01T06:34:30.986Z,99641.50
2023-02-01T06:35:02.944Z,99648.66
2023-02-01T06:35:34.884Z,99647.91
2023-02-01T06:36:08.668Z,99641.69
2023-02-01T06:36:41.098Z,99644.44
2023-02-01T06:37:12.965Z,99640.31
2023-02-01T06:37:45.744Z,99639.22
2023-02-01T06:38:19.657Z,99647.47
2023-02-01T06:38:52.093Z,99645.25
2023-02-01T06:39:24.224Z,99640.34
2023-02-01T06:39:56.213Z,99643.78
2023-02-01T06:40:28.081Z,99641.00
2023-02-01T06:41:00.033Z,99648.00
2023-02-01T06:41:31.872Z,99638.00
2023-02-01T06:42:04.274Z,99638.00
2023-02-01T06:42:36.168Z,99646.19
2023-02-01T06:43:08.046Z,99645.69
2023-02-01T06:43:40.030Z,99637.28
2023-02-01T06:44:12.370Z,99648.78
2023-02-01T06:44:44.271Z,99649.25
2023-02-01T06:45:17.589Z,99650.37
2023-02-01T06:45:49.466Z,99646.94
2023-02-01T06:46:21.578Z,99648.09
2023-02-01T06:46:53.537Z,99643.00
2023-02-01T06:47:25.524Z,99646.38
2023-02-01T06:47:57.384Z,99644.63
2023-02-01T06:48:30.821Z,99653.91
2023-02-01T06:49:03.380Z,99648.84
2023-02-01T06:49:35.695Z,99651.34
2023-02-01T06:50:08.737Z,99646.41
2023-02-01T06:50:41.386Z,99649.09
2023-02-01T06:51:24.601Z,99653.75
2023-02-01T06:51:56.613Z,99655.78
2023-02-01T06:52:28.476Z,99658.22
2023-02-01T06:53:01.104Z,99649.09
2023-02-01T06:53:33.517Z,99659.63
2023-02-01T06:54:05.508Z,99651.69
2023-02-01T06:54:38.447Z,99653.62
2023-02-01T06:55:10.579Z,99662.91
2023-02-01T06:55:42.583Z,99662.91
2023-02-01T06:56:14.587Z,99664.78
2023-02-01T06:56:46.565Z,99661.81